Accueil
METAR-TAF:

METAR-TAF

Aéroports :

Pattaya-Rayong, Thaïlande

latitude: 12-38N, longitude: 101-21E, altitude: 3 m

Observation

Le bulletin a été fait il y a 30 minutes, à 11:30 UTC
Vent 10 kt de sud
Température 31°C
Humidité 71%
Pression 1004 hPa
Visibilité 10 km ou plus
Quelques nuages à une hauteur de 2000 ft

METAR: VTBU 151130Z 19010KT 9999 FEW020 31/25 Q1004 NOSIG

Heure: 19:00 (12:00 UTC)

Prévision

Le bulletin a été fait il y a 1 heure et 0 minutes, à 11:00 UTC
Prévision valable du 15 à 12 UTC au 16 à 12 UTC
Vent 6 kt de sud-ouest
Visibilité 10 km ou plus
Quelques nuages à une hauteur de 2000 ft
Evoluant progressivement
du 15 à 17 UTC au 15 à 19 UTC
Vent 5 kt de nord-ouest
Evoluant progressivement
du 16 à 00 UTC au 16 à 02 UTC
Vent 8 kt de sud-ouest

TAF: VTBU 151100Z 1512/1612 23006KT 9999 FEW020 BECMG 1517/1519 32005KT BECMG 1600/1602 23008KT

Observations et prévisions météorologiques de plus de 4000 aéroports (messages METAR et TAF).

Les stations disponibles sont représentées par des disques jaunes et rouges sur la carte.

Passer la souris dessus pour voir le nom de la station.

Cliquer dessus pour voir les observations et prévisions météorologiques.

Pour changer de carte: cliquez sur les boutons verts avec une croix noire pour zoomer, sur le bouton vert avec un tiret pour effectuer un zoom arrière, ou sur les flèches vertes pour les cartes adjacentes.


METAR-TAF: